sensor_id;sensor_type;location;lat;lon;timestamp;temperature;humidity
26803;DHT22;14378;51.796;5.808;2023-06-24T00:05:51;19.50;99.90
26803;DHT22;14378;51.796;5.808;2023-06-24T00:07:52;19.50;99.90
26803;DHT22;14378;51.796;5.808;2023-06-24T00:09:59;19.50;99.90
26803;DHT22;14378;51.796;5.808;2023-06-24T00:12:01;19.50;99.90
26803;DHT22;14378;51.796;5.808;2023-06-24T00:14:02;19.50;99.90
26803;DHT22;14378;51.796;5.808;2023-06-24T00:16:04;19.40;99.90
26803;DHT22;14378;51.796;5.808;2023-06-24T00:18:07;19.40;99.90
26803;DHT22;14378;51.796;5.808;2023-06-24T00:20:10;19.40;99.90
26803;DHT22;14378;51.796;5.808;2023-06-24T00:22:15;19.30;99.90
26803;DHT22;14378;51.796;5.808;2023-06-24T00:24:16;19.30;99.90
26803;DHT22;14378;51.796;5.808;2023-06-24T00:26:18;19.30;99.90
26803;DHT22;14378;51.796;5.808;2023-06-24T00:28:22;19.30;99.90
26803;DHT22;14378;51.796;5.808;2023-06-24T00:30:23;19.30;99.90
26803;DHT22;14378;51.796;5.808;2023-06-24T00:32:24;19.30;99.90
26803;DHT22;14378;51.796;5.808;2023-06-24T00:34:25;19.30;99.90
26803;DHT22;14378;51.796;5.808;2023-06-24T00:36:26;19.20;99.90
26803;DHT22;14378;51.796;5.808;2023-06-24T00:38:27;19.20;99.90
26803;DHT22;14378;51.796;5.808;2023-06-24T00:40:32;19.20;99.90
26803;DHT22;14378;51.796;5.808;2023-06-24T00:42:34;19.20;99.90
26803;DHT22;14378;51.796;5.808;2023-06-24T00:44:35;19.20;99.90
26803;DHT22;14378;51.796;5.808;2023-06-24T00:46:38;19.10;99.90
26803;DHT22;14378;51.796;5.808;2023-06-24T00:48:40;19.10;99.90
26803;DHT22;14378;51.796;5.808;2023-06-24T00:50:45;19.10;99.90
26803;DHT22;14378;51.796;5.808;2023-06-24T00:52:46;19.10;99.90
26803;DHT22;14378;51.796;5.808;2023-06-24T00:54:49;19.10;99.90
26803;DHT22;14378;51.796;5.808;2023-06-24T00:56:53;19.00;99.90
26803;DHT22;14378;51.796;5.808;2023-06-24T00:58:59;19.10;99.90
26803;DHT22;14378;51.796;5.808;2023-06-24T01:01:04;19.00;99.90
26803;DHT22;14378;51.796;5.808;2023-06-24T01:03:10;19.00;99.90
26803;DHT22;14378;51.796;5.808;2023-06-24T01:05:15;19.00;99.90
26803;DHT22;14378;51.796;5.808;2023-06-24T01:07:17;19.00;99.90
26803;DHT22;14378;51.796;5.808;2023-06-24T01:09:19;19.00;99.90
26803;DHT22;14378;51.796;5.808;2023-06-24T01:11:22;19.00;99.90
26803;DHT22;14378;51.796;5.808;2023-06-24T01:13:26;19.00;99.90
26803;DHT22;14378;51.796;5.808;2023-06-24T01:15:29;19.00;99.90
26803;DHT22;14378;51.796;5.808;2023-06-24T01:17:41;19.00;99.90
26803;DHT22;14378;51.796;5.808;2023-06-24T01:20:06;19.00;99.90
26803;DHT22;14378;51.796;5.808;2023-06-24T01:22:19;19.00;99.90
26803;DHT22;14378;51.796;5.808;2023-06-24T01:31:59;18.90;99.90
26803;DHT22;14378;51.796;5.808;2023-06-24T01:34:29;18.90;99.90
26803;DHT22;14378;51.796;5.808;2023-06-24T01:36:34;18.90;99.90
26803;DHT22;14378;51.796;5.808;2023-06-24T01:38:48;18.90;99.90
26803;DHT22;14378;51.796;5.808;2023-06-24T01:40:54;18.90;99.90
26803;DHT22;14378;51.796;5.808;2023-06-24T01:42:58;18.80;99.90
26803;DHT22;14378;51.796;5.808;2023-06-24T01:45:00;18.90;99.90
26803;DHT22;14378;51.796;5.808;2023-06-24T01:47:04;18.90;99.90
26803;DHT22;14378;51.796;5.808;2023-06-24T01:49:14;18.80;99.90
26803;DHT22;14378;51.796;5.808;2023-06-24T01:51:18;18.90;99.90
26803;DHT22;14378;51.796;5.808;2023-06-24T01:53:21;18.80;99.90
26803;DHT22;14378;51.796;5.808;2023-06-24T01:55:25;18.80;99.90
26803;DHT22;14378;51.796;5.808;2023-06-24T01:57:27;18.80;99.90
26803;DHT22;14378;51.796;5.808;2023-06-24T01:59:30;18.80;99.90
26803;DHT22;14378;51.796;5.808;2023-06-24T02:01:33;18.80;99.90
26803;DHT22;14378;51.796;5.808;2023-06-24T02:03:36;18.80;99.90
26803;DHT22;14378;51.796;5.808;2023-06-24T02:05:44;18.70;99.90
26803;DHT22;14378;51.796;5.808;2023-06-24T02:07:48;18.70;99.90
26803;DHT22;14378;51.796;5.808;2023-06-24T02:09:51;18.70;99.90
26803;DHT22;14378;51.796;5.808;2023-06-24T02:11:54;18.70;99.90
26803;DHT22;14378;51.796;5.808;2023-06-24T02:13:57;18.70;99.90
26803;DHT22;14378;51.796;5.808;2023-06-24T02:16:01;18.70;99.90
26803;DHT22;14378;51.796;5.808;2023-06-24T02:18:04;18.70;99.90
26803;DHT22;14378;51.796;5.808;2023-06-24T02:20:07;18.60;99.90
26803;DHT22;14378;51.796;5.808;2023-06-24T02:22:32;18.60;99.90
26803;DHT22;14378;51.796;5.808;2023-06-24T02:24:33;18.50;99.90
26803;DHT22;14378;51.796;5.808;2023-06-24T02:26:36;18.50;99.90
26803;DHT22;14378;51.796;5.808;2023-06-24T02:28:44;18.50;99.90
26803;DHT22;14378;51.796;5.808;2023-06-24T02:30:47;18.40;99.90
26803;DHT22;14378;51.796;5.808;2023-06-24T02:32:49;18.40;99.90
26803;DHT22;14378;51.796;5.808;2023-06-24T02:34:51;18.40;99.90
26803;DHT22;14378;51.796;5.808;2023-06-24T02:36:52;18.30;99.90
26803;DHT22;14378;51.796;5.808;2023-06-24T02:38:54;18.30;99.90
26803;DHT22;14378;51.796;5.808;2023-06-24T02:40:56;18.30;99.90
26803;DHT22;14378;51.796;5.808;2023-06-24T02:43:03;18.30;99.90
26803;DHT22;14378;51.796;5.808;2023-06-24T02:45:05;18.30;99.90
26803;DHT22;14378;51.796;5.808;2023-06-24T02:47:09;18.30;99.90
26803;DHT22;14378;51.796;5.808;2023-06-24T02:49:13;18.20;99.90
26803;DHT22;14378;51.796;5.808;2023-06-24T02:51:16;18.20;99.90
26803;DHT22;14378;51.796;5.808;2023-06-24T02:53:17;18.10;99.90
26803;DHT22;14378;51.796;5.808;2023-06-24T02:55:20;18.20;99.90
26803;DHT22;14378;51.796;5.808;2023-06-24T02:57:26;18.10;99.90
26803;DHT22;14378;51.796;5.808;2023-06-24T02:59:54;18.10;99.90
26803;DHT22;14378;51.796;5.808;2023-06-24T03:01:58;18.00;99.90
26803;DHT22;14378;51.796;5.808;2023-06-24T03:04:01;18.00;99.90
26803;DHT22;14378;51.796;5.808;2023-06-24T03:06:05;18.00;99.90
26803;DHT22;14378;51.796;5.808;2023-06-24T03:08:06;18.00;99.90
26803;DHT22;14378;51.796;5.808;2023-06-24T03:10:10;18.00;99.90
26803;DHT22;14378;51.796;5.808;2023-06-24T03:12:14;18.00;99.90
26803;DHT22;14378;51.796;5.808;2023-06-24T03:14:17;17.90;99.90
26803;DHT22;14378;51.796;5.808;2023-06-24T03:16:19;17.90;99.90
26803;DHT22;14378;51.796;5.808;2023-06-24T03:18:43;17.80;99.90
26803;DHT22;14378;51.796;5.808;2023-06-24T03:20:44;17.80;99.90
26803;DHT22;14378;51.796;5.808;2023-06-24T03:22:51;17.80;99.90
26803;DHT22;14378;51.796;5.808;2023-06-24T03:24:55;17.80;99.90
26803;DHT22;14378;51.796;5.808;2023-06-24T03:26:58;17.80;99.90
26803;DHT22;14378;51.796;5.808;2023-06-24T03:29:12;17.80;99.90
26803;DHT22;14378;51.796;5.808;2023-06-24T03:31:26;17.80;99.90
26803;DHT22;14378;51.796;5.808;2023-06-24T03:33:28;17.80;99.90
26803;DHT22;14378;51.796;5.808;2023-06-24T03:35:30;17.80;99.90
26803;DHT22;14378;51.796;5.808;2023-06-24T03:37:37;17.80;99.90
26803;DHT22;14378;51.796;5.808;2023-06-24T03:39:38;17.70;99.90
26803;DHT22;14378;51.796;5.808;2023-06-24T03:41:40;17.80;99.90
26803;DHT22;14378;51.796;5.808;2023-06-24T03:43:46;17.70;99.90
26803;DHT22;14378;51.796;5.808;2023-06-24T03:45:47;17.70;99.90
26803;DHT22;14378;51.796;5.808;2023-06-24T03:47:49;17.70;99.90
26803;DHT22;14378;51.796;5.808;2023-06-24T03:49:50;17.70;99.90
26803;DHT22;14378;51.796;5.808;2023-06-24T03:51:55;17.60;99.90
26803;DHT22;14378;51.796;5.808;2023-06-24T03:53:56;17.60;99.90
26803;DHT22;14378;51.796;5.808;2023-06-24T03:55:57;17.60;99.90
26803;DHT22;14378;51.796;5.808;2023-06-24T03:57:59;17.60;99.90
26803;DHT22;14378;51.796;5.808;2023-06-24T04:00:01;17.60;99.90
26803;DHT22;14378;51.796;5.808;2023-06-24T04:02:02;17.50;99.90
26803;DHT22;14378;51.796;5.808;2023-06-24T04:04:03;17.50;99.90
26803;DHT22;14378;51.796;5.808;2023-06-24T04:06:10;17.50;99.90
26803;DHT22;14378;51.796;5.808;2023-06-24T04:08:14;17.50;99.90
26803;DHT22;14378;51.796;5.808;2023-06-24T04:10:15;17.50;99.90
26803;DHT22;14378;51.796;5.808;2023-06-24T04:12:18;17.50;99.90
26803;DHT22;14378;51.796;5.808;2023-06-24T04:14:21;17.50;99.90
26803;DHT22;14378;51.796;5.808;2023-06-24T04:16:23;17.50;99.90
26803;DHT22;14378;51.796;5.808;2023-06-24T04:18:24;17.50;99.90
26803;DHT22;14378;51.796;5.808;2023-06-24T04:20:25;17.50;99.90
26803;DHT22;14378;51.796;5.808;2023-06-24T04:22:26;17.50;99.90
26803;DHT22;14378;51.796;5.808;2023-06-24T04:24:31;17.50;99.90
26803;DHT22;14378;51.796;5.808;2023-06-24T04:26:33;17.50;99.90
26803;DHT22;14378;51.796;5.808;2023-06-24T04:28:34;17.60;99.90
26803;DHT22;14378;51.796;5.808;2023-06-24T04:30:35;17.60;99.90
26803;DHT22;14378;51.796;5.808;2023-06-24T04:32:38;17.60;99.90
26803;DHT22;14378;51.796;5.808;2023-06-24T04:34:39;17.60;99.90
26803;DHT22;14378;51.796;5.808;2023-06-24T04:36:43;17.60;99.90
26803;DHT22;14378;51.796;5.808;2023-06-24T04:38:44;17.60;99.90
26803;DHT22;14378;51.796;5.808;2023-06-24T04:40:46;17.70;99.90
26803;DHT22;14378;51.796;5.808;2023-06-24T04:42:47;17.70;99.90
26803;DHT22;14378;51.796;5.808;2023-06-24T04:44:48;17.70;99.90
26803;DHT22;14378;51.796;5.808;2023-06-24T04:46:52;17.70;99.90
26803;DHT22;14378;51.796;5.808;2023-06-24T04:48:53;17.70;99.90
26803;DHT22;14378;51.796;5.808;2023-06-24T04:50:54;17.70;99.90
26803;DHT22;14378;51.796;5.808;2023-06-24T04:52:55;17.80;99.90
26803;DHT22;14378;51.796;5.808;2023-06-24T04:54:57;17.80;99.90
26803;DHT22;14378;51.796;5.808;2023-06-24T04:56:58;17.80;99.90
26803;DHT22;14378;51.796;5.808;2023-06-24T04:58:59;17.80;99.90
26803;DHT22;14378;51.796;5.808;2023-06-24T05:01:00;17.90;99.90
26803;DHT22;14378;51.796;5.808;2023-06-24T05:03:01;17.90;99.90
26803;DHT22;14378;51.796;5.808;2023-06-24T05:05:02;17.90;99.90
26803;DHT22;14378;51.796;5.808;2023-06-24T05:07:03;17.90;99.90
26803;DHT22;14378;51.796;5.808;2023-06-24T05:09:05;18.00;99.90
26803;DHT22;14378;51.796;5.808;2023-06-24T05:11:06;18.00;99.90
26803;DHT22;14378;51.796;5.808;2023-06-24T05:13:07;18.00;99.90
26803;DHT22;14378;51.796;5.808;2023-06-24T05:15:08;18.00;99.90
26803;DHT22;14378;51.796;5.808;2023-06-24T05:17:15;18.10;99.90
26803;DHT22;14378;51.796;5.808;2023-06-24T05:19:16;18.10;99.90
26803;DHT22;14378;51.796;5.808;2023-06-24T05:21:17;18.10;99.90
26803;DHT22;14378;51.796;5.808;2023-06-24T05:23:17;18.20;99.90
26803;DHT22;14378;51.796;5.808;2023-06-24T05:25:18;18.20;99.90
26803;DHT22;14378;51.796;5.808;2023-06-24T05:27:20;18.30;99.90
26803;DHT22;14378;51.796;5.808;2023-06-24T05:29:20;18.30;99.90
26803;DHT22;14378;51.796;5.808;2023-06-24T05:31:21;18.40;99.90
26803;DHT22;14378;51.796;5.808;2023-06-24T05:33:22;18.40;99.90
26803;DHT22;14378;51.796;5.808;2023-06-24T05:35:24;18.50;99.90
26803;DHT22;14378;51.796;5.808;2023-06-24T05:37:25;18.60;99.90
26803;DHT22;14378;51.796;5.808;2023-06-24T05:39:26;18.60;99.90
26803;DHT22;14378;51.796;5.808;2023-06-24T05:41:27;18.60;99.90
26803;DHT22;14378;51.796;5.808;2023-06-24T05:43:28;18.70;99.90
26803;DHT22;14378;51.796;5.808;2023-06-24T05:45:30;18.70;99.90
26803;DHT22;14378;51.796;5.808;2023-06-24T05:47:31;18.80;99.90
26803;DHT22;14378;51.796;5.808;2023-06-24T05:49:32;18.80;99.90
26803;DHT22;14378;51.796;5.808;2023-06-24T05:51:34;18.80;99.90
26803;DHT22;14378;51.796;5.808;2023-06-24T05:53:35;18.90;99.90
26803;DHT22;14378;51.796;5.808;2023-06-24T05:55:36;19.00;99.90
26803;DHT22;14378;51.796;5.808;2023-06-24T05:57:38;19.00;99.90
26803;DHT22;14378;51.796;5.808;2023-06-24T05:59:44;19.00;99.90
26803;DHT22;14378;51.796;5.808;2023-06-24T06:01:45;19.00;99.90
26803;DHT22;14378;51.796;5.808;2023-06-24T06:03:46;19.10;99.90
26803;DHT22;14378;51.796;5.808;2023-06-24T06:05:47;19.10;99.90
26803;DHT22;14378;51.796;5.808;2023-06-24T06:07:51;19.20;99.90
26803;DHT22;14378;51.796;5.808;2023-06-24T06:09:54;19.20;99.90
26803;DHT22;14378;51.796;5.808;2023-06-24T06:11:59;19.20;99.90
26803;DHT22;14378;51.796;5.808;2023-06-24T06:14:00;19.30;99.90
26803;DHT22;14378;51.796;5.808;2023-06-24T06:16:02;19.40;99.90
26803;DHT22;14378;51.796;5.808;2023-06-24T06:18:03;19.50;99.90
26803;DHT22;14378;51.796;5.808;2023-06-24T06:20:05;19.50;99.90
26803;DHT22;14378;51.796;5.808;2023-06-24T06:22:06;19.60;99.90
26803;DHT22;14378;51.796;5.808;2023-06-24T06:24:07;19.70;99.90
26803;DHT22;14378;51.796;5.808;2023-06-24T06:26:08;19.80;99.90
26803;DHT22;14378;51.796;5.808;2023-06-24T06:28:09;19.80;99.90
26803;DHT22;14378;51.796;5.808;2023-06-24T06:30:13;19.90;99.90
26803;DHT22;14378;51.796;5.808;2023-06-24T06:32:17;20.00;99.90
26803;DHT22;14378;51.796;5.808;2023-06-24T06:34:19;20.10;99.90
26803;DHT22;14378;51.796;5.808;2023-06-24T06:36:20;20.20;99.90
26803;DHT22;14378;51.796;5.808;2023-06-24T06:38:22;20.30;99.90
26803;DHT22;14378;51.796;5.808;2023-06-24T06:40:24;20.40;99.90
26803;DHT22;14378;51.796;5.808;2023-06-24T06:42:25;20.40;99.90
26803;DHT22;14378;51.796;5.808;2023-06-24T06:44:27;20.50;99.90
26803;DHT22;14378;51.796;5.808;2023-06-24T06:46:29;20.60;99.90
26803;DHT22;14378;51.796;5.808;2023-06-24T06:48:30;20.70;99.90
26803;DHT22;14378;51.796;5.808;2023-06-24T06:50:31;20.80;99.90
26803;DHT22;14378;51.796;5.808;2023-06-24T06:52:32;20.90;99.90
26803;DHT22;14378;51.796;5.808;2023-06-24T06:54:33;21.00;99.90
26803;DHT22;14378;51.796;5.808;2023-06-24T06:56:40;21.10;99.90
26803;DHT22;14378;51.796;5.808;2023-06-24T06:58:42;21.20;99.90
26803;DHT22;14378;51.796;5.808;2023-06-24T07:00:44;21.30;99.90
26803;DHT22;14378;51.796;5.808;2023-06-24T07:02:47;21.40;99.90
26803;DHT22;14378;51.796;5.808;2023-06-24T07:04:51;21.40;99.90
26803;DHT22;14378;51.796;5.808;2023-06-24T07:06:53;21.60;99.90
26803;DHT22;14378;51.796;5.808;2023-06-24T07:08:55;21.70;99.90
26803;DHT22;14378;51.796;5.808;2023-06-24T07:10:56;21.80;99.90
26803;DHT22;14378;51.796;5.808;2023-06-24T07:12:57;21.90;99.90
26803;DHT22;14378;51.796;5.808;2023-06-24T07:14:59;21.90;99.90
26803;DHT22;14378;51.796;5.808;2023-06-24T07:17:00;22.00;99.90
26803;DHT22;14378;51.796;5.808;2023-06-24T07:19:02;22.00;99.90
26803;DHT22;14378;51.796;5.808;2023-06-24T07:21:03;22.00;99.90
26803;DHT22;14378;51.796;5.808;2023-06-24T07:23:04;22.10;99.90
26803;DHT22;14378;51.796;5.808;2023-06-24T07:25:05;22.20;99.90
26803;DHT22;14378;51.796;5.808;2023-06-24T07:27:06;22.30;99.90
26803;DHT22;14378;51.796;5.808;2023-06-24T07:29:08;22.40;99.90
26803;DHT22;14378;51.796;5.808;2023-06-24T07:31:09;22.60;99.90
26803;DHT22;14378;51.796;5.808;2023-06-24T07:33:10;22.70;99.90
26803;DHT22;14378;51.796;5.808;2023-06-24T07:35:14;22.80;99.90
26803;DHT22;14378;51.796;5.808;2023-06-24T07:37:18;22.90;99.90
26803;DHT22;14378;51.796;5.808;2023-06-24T07:39:19;22.90;99.90
26803;DHT22;14378;51.796;5.808;2023-06-24T07:41:21;23.00;99.90
26803;DHT22;14378;51.796;5.808;2023-06-24T07:43:21;23.10;99.90
26803;DHT22;14378;51.796;5.808;2023-06-24T07:45:22;23.10;99.90
26803;DHT22;14378;51.796;5.808;2023-06-24T07:47:26;23.20;99.90
26803;DHT22;14378;51.796;5.808;2023-06-24T07:49:27;23.30;99.90
26803;DHT22;14378;51.796;5.808;2023-06-24T07:51:32;23.40;99.90
26803;DHT22;14378;51.796;5.808;2023-06-24T07:53:38;23.50;99.90
26803;DHT22;14378;51.796;5.808;2023-06-24T07:55:39;23.60;99.90
26803;DHT22;14378;51.796;5.808;2023-06-24T07:57:45;23.60;99.90
26803;DHT22;14378;51.796;5.808;2023-06-24T07:59:47;23.70;99.90
26803;DHT22;14378;51.796;5.808;2023-06-24T08:01:48;23.80;99.90
26803;DHT22;14378;51.796;5.808;2023-06-24T08:03:49;24.00;99.90
26803;DHT22;14378;51.796;5.808;2023-06-24T08:05:50;24.10;99.90
26803;DHT22;14378;51.796;5.808;2023-06-24T08:07:52;24.30;99.90
26803;DHT22;14378;51.796;5.808;2023-06-24T08:09:53;24.40;99.90
26803;DHT22;14378;51.796;5.808;2023-06-24T08:11:54;24.40;99.90
26803;DHT22;14378;51.796;5.808;2023-06-24T08:13:56;24.40;99.90
26803;DHT22;14378;51.796;5.808;2023-06-24T08:15:57;24.50;99.90
26803;DHT22;14378;51.796;5.808;2023-06-24T08:17:59;24.60;99.90
26803;DHT22;14378;51.796;5.808;2023-06-24T08:20:02;24.80;99.90
26803;DHT22;14378;51.796;5.808;2023-06-24T08:22:04;24.90;99.90
26803;DHT22;14378;51.796;5.808;2023-06-24T08:24:05;24.90;99.50
26803;DHT22;14378;51.796;5.808;2023-06-24T08:26:07;25.00;99.70
26803;DHT22;14378;51.796;5.808;2023-06-24T08:28:08;25.10;99.70
26803;DHT22;14378;51.796;5.808;2023-06-24T08:30:10;25.20;99.10
26803;DHT22;14378;51.796;5.808;2023-06-24T08:32:13;25.30;97.60
26803;DHT22;14378;51.796;5.808;2023-06-24T08:34:20;25.30;97.70
26803;DHT22;14378;51.796;5.808;2023-06-24T08:36:22;25.40;98.10
26803;DHT22;14378;51.796;5.808;2023-06-24T08:38:24;25.50;97.60
26803;DHT22;14378;51.796;5.808;2023-06-24T08:40:27;25.60;97.90
26803;DHT22;14378;51.796;5.808;2023-06-24T08:42:32;25.70;98.00
26803;DHT22;14378;51.796;5.808;2023-06-24T08:44:33;25.80;98.20
26803;DHT22;14378;51.796;5.808;2023-06-24T08:46:34;26.00;97.90
26803;DHT22;14378;51.796;5.808;2023-06-24T08:48:39;26.00;95.50
26803;DHT22;14378;51.796;5.808;2023-06-24T08:50:54;26.10;96.20
26803;DHT22;14378;51.796;5.808;2023-06-24T08:52:57;26.20;95.70
26803;DHT22;14378;51.796;5.808;2023-06-24T08:54:59;26.20;95.80
26803;DHT22;14378;51.796;5.808;2023-06-24T08:57:02;26.30;95.60
26803;DHT22;14378;51.796;5.808;2023-06-24T08:59:06;26.50;96.20
26803;DHT22;14378;51.796;5.808;2023-06-24T09:01:08;26.60;96.40
26803;DHT22;14378;51.796;5.808;2023-06-24T09:03:10;26.70;95.40
26803;DHT22;14378;51.796;5.808;2023-06-24T09:05:14;26.90;95.50
26803;DHT22;14378;51.796;5.808;2023-06-24T09:07:26;27.00;96.10
26803;DHT22;14378;51.796;5.808;2023-06-24T09:09:31;27.10;95.20
26803;DHT22;14378;51.796;5.808;2023-06-24T09:11:32;27.30;93.50
26803;DHT22;14378;51.796;5.808;2023-06-24T09:13:37;27.40;93.20
26803;DHT22;14378;51.796;5.808;2023-06-24T09:15:38;27.40;92.80
26803;DHT22;14378;51.796;5.808;2023-06-24T09:17:44;27.30;92.80
26803;DHT22;14378;51.796;5.808;2023-06-24T09:19:48;27.20;93.50
26803;DHT22;14378;51.796;5.808;2023-06-24T09:21:50;27.20;94.20
26803;DHT22;14378;51.796;5.808;2023-06-24T09:23:54;27.30;94.00
26803;DHT22;14378;51.796;5.808;2023-06-24T09:25:58;27.40;93.50
26803;DHT22;14378;51.796;5.808;2023-06-24T09:28:03;27.50;94.00
26803;DHT22;14378;51.796;5.808;2023-06-24T09:30:24;27.70;94.10
26803;DHT22;14378;51.796;5.808;2023-06-24T09:32:32;28.00;93.90
26803;DHT22;14378;51.796;5.808;2023-06-24T09:34:33;28.10;93.30
26803;DHT22;14378;51.796;5.808;2023-06-24T09:36:35;28.10;93.20
26803;DHT22;14378;51.796;5.808;2023-06-24T09:38:37;28.20;92.20
26803;DHT22;14378;51.796;5.808;2023-06-24T09:40:46;28.30;93.60
26803;DHT22;14378;51.796;5.808;2023-06-24T09:42:55;28.50;92.30
26803;DHT22;14378;51.796;5.808;2023-06-24T09:44:56;28.70;92.80
26803;DHT22;14378;51.796;5.808;2023-06-24T09:46:57;28.90;92.00
26803;DHT22;14378;51.796;5.808;2023-06-24T09:48:58;29.00;92.40
26803;DHT22;14378;51.796;5.808;2023-06-24T09:51:01;29.20;92.60
26803;DHT22;14378;51.796;5.808;2023-06-24T09:53:04;29.30;90.90
26803;DHT22;14378;51.796;5.808;2023-06-24T09:55:06;29.20;90.00
26803;DHT22;14378;51.796;5.808;2023-06-24T09:57:14;29.30;92.10
26803;DHT22;14378;51.796;5.808;2023-06-24T09:59:18;29.50;91.90
26803;DHT22;14378;51.796;5.808;2023-06-24T10:01:21;29.70;91.20
26803;DHT22;14378;51.796;5.808;2023-06-24T10:03:22;29.80;88.10
26803;DHT22;14378;51.796;5.808;2023-06-24T10:05:23;29.90;90.80
26803;DHT22;14378;51.796;5.808;2023-06-24T10:07:24;30.10;90.70
26803;DHT22;14378;51.796;5.808;2023-06-24T10:09:27;30.30;90.50
26803;DHT22;14378;51.796;5.808;2023-06-24T10:11:29;30.50;91.00
26803;DHT22;14378;51.796;5.808;2023-06-24T10:13:31;30.60;89.40
26803;DHT22;14378;51.796;5.808;2023-06-24T10:15:37;30.60;89.00
26803;DHT22;14378;51.796;5.808;2023-06-24T10:17:38;30.60;86.60
26803;DHT22;14378;51.796;5.808;2023-06-24T10:19:44;30.40;87.60
26803;DHT22;14378;51.796;5.808;2023-06-24T10:21:50;30.60;86.90
26803;DHT22;14378;51.796;5.808;2023-06-24T10:23:52;30.70;84.60
26803;DHT22;14378;51.796;5.808;2023-06-24T10:25:59;30.90;87.60
26803;DHT22;14378;51.796;5.808;2023-06-24T10:28:01;31.00;85.80
26803;DHT22;14378;51.796;5.808;2023-06-24T10:30:05;31.20;89.90
26803;DHT22;14378;51.796;5.808;2023-06-24T10:32:23;31.40;89.00
26803;DHT22;14378;51.796;5.808;2023-06-24T10:34:34;31.60;88.90
26803;DHT22;14378;51.796;5.808;2023-06-24T10:36:37;31.60;84.10
26803;DHT22;14378;51.796;5.808;2023-06-24T10:38:41;31.70;85.50
26803;DHT22;14378;51.796;5.808;2023-06-24T10:40:49;31.90;83.40
26803;DHT22;14378;51.796;5.808;2023-06-24T10:42:50;32.10;85.30
26803;DHT22;14378;51.796;5.808;2023-06-24T10:44:59;32.20;85.50
26803;DHT22;14378;51.796;5.808;2023-06-24T10:47:00;31.80;82.60
26803;DHT22;14378;51.796;5.808;2023-06-24T10:49:05;31.80;84.80
26803;DHT22;14378;51.796;5.808;2023-06-24T10:51:06;31.90;87.50
26803;DHT22;14378;51.796;5.808;2023-06-24T10:53:08;31.90;85.60
26803;DHT22;14378;51.796;5.808;2023-06-24T10:55:19;31.90;83.50
26803;DHT22;14378;51.796;5.808;2023-06-24T10:57:22;31.80;80.40
26803;DHT22;14378;51.796;5.808;2023-06-24T10:59:24;31.80;84.20
26803;DHT22;14378;51.796;5.808;2023-06-24T11:01:28;32.10;86.70
26803;DHT22;14378;51.796;5.808;2023-06-24T11:03:34;32.30;87.60
26803;DHT22;14378;51.796;5.808;2023-06-24T11:05:43;32.50;88.40
26803;DHT22;14378;51.796;5.808;2023-06-24T11:07:44;32.60;85.80
26803;DHT22;14378;51.796;5.808;2023-06-24T11:10:00;32.70;88.10
26803;DHT22;14378;51.796;5.808;2023-06-24T11:12:06;32.80;85.50
26803;DHT22;14378;51.796;5.808;2023-06-24T11:14:09;32.80;79.20
26803;DHT22;14378;51.796;5.808;2023-06-24T11:16:10;32.80;80.60
26803;DHT22;14378;51.796;5.808;2023-06-24T11:18:17;32.80;83.30
26803;DHT22;14378;51.796;5.808;2023-06-24T11:20:24;32.90;82.80
26803;DHT22;14378;51.796;5.808;2023-06-24T11:22:27;32.90;86.30
26803;DHT22;14378;51.796;5.808;2023-06-24T11:24:28;33.10;86.80
26803;DHT22;14378;51.796;5.808;2023-06-24T11:26:35;33.20;88.00
26803;DHT22;14378;51.796;5.808;2023-06-24T11:28:37;33.30;84.10
26803;DHT22;14378;51.796;5.808;2023-06-24T11:30:39;33.40;82.70
26803;DHT22;14378;51.796;5.808;2023-06-24T11:32:43;33.70;84.40
26803;DHT22;14378;51.796;5.808;2023-06-24T11:34:44;33.70;81.00
26803;DHT22;14378;51.796;5.808;2023-06-24T11:36:46;33.60;80.00
26803;DHT22;14378;51.796;5.808;2023-06-24T11:38:47;33.50;81.10
26803;DHT22;14378;51.796;5.808;2023-06-24T11:40:48;33.50;81.20
26803;DHT22;14378;51.796;5.808;2023-06-24T11:42:49;33.40;77.30
26803;DHT22;14378;51.796;5.808;2023-06-24T11:44:51;33.40;78.00
26803;DHT22;14378;51.796;5.808;2023-06-24T11:46:53;33.30;77.20
26803;DHT22;14378;51.796;5.808;2023-06-24T11:49:07;33.30;80.50
26803;DHT22;14378;51.796;5.808;2023-06-24T11:51:16;33.40;83.80
26803;DHT22;14378;51.796;5.808;2023-06-24T11:53:17;33.50;84.70
26803;DHT22;14378;51.796;5.808;2023-06-24T11:55:23;33.60;85.00
26803;DHT22;14378;51.796;5.808;2023-06-24T11:59:57;33.50;76.30
26803;DHT22;14378;51.796;5.808;2023-06-24T12:01:59;33.70;80.00
26803;DHT22;14378;51.796;5.808;2023-06-24T12:06:06;33.60;79.80
26803;DHT22;14378;51.796;5.808;2023-06-24T12:08:09;33.70;80.50
26803;DHT22;14378;51.796;5.808;2023-06-24T12:10:10;34.00;80.60
26803;DHT22;14378;51.796;5.808;2023-06-24T12:12:17;34.30;79.70
26803;DHT22;14378;51.796;5.808;2023-06-24T12:14:18;34.40;76.90
26803;DHT22;14378;51.796;5.808;2023-06-24T12:16:20;34.60;75.60
26803;DHT22;14378;51.796;5.808;2023-06-24T12:18:23;34.80;83.40
26803;DHT22;14378;51.796;5.808;2023-06-24T12:20:25;35.00;79.90
26803;DHT22;14378;51.796;5.808;2023-06-24T12:22:29;35.00;80.50
26803;DHT22;14378;51.796;5.808;2023-06-24T12:24:33;35.00;81.50
26803;DHT22;14378;51.796;5.808;2023-06-24T12:26:34;35.10;80.80
26803;DHT22;14378;51.796;5.808;2023-06-24T12:28:36;35.10;80.20
26803;DHT22;14378;51.796;5.808;2023-06-24T12:30:37;35.00;77.50
26803;DHT22;14378;51.796;5.808;2023-06-24T12:32:39;34.90;81.90
26803;DHT22;14378;51.796;5.808;2023-06-24T12:34:40;35.10;80.40
26803;DHT22;14378;51.796;5.808;2023-06-24T12:36:46;35.30;82.00
26803;DHT22;14378;51.796;5.808;2023-06-24T12:38:47;35.50;83.20
26803;DHT22;14378;51.796;5.808;2023-06-24T12:40:48;35.60;80.50
26803;DHT22;14378;51.796;5.808;2023-06-24T12:42:50;35.70;78.30
26803;DHT22;14378;51.796;5.808;2023-06-24T12:44:51;35.80;73.80
26803;DHT22;14378;51.796;5.808;2023-06-24T12:46:53;35.80;78.50
26803;DHT22;14378;51.796;5.808;2023-06-24T12:48:54;35.90;78.80
26803;DHT22;14378;51.796;5.808;2023-06-24T12:50:55;35.70;75.50
26803;DHT22;14378;51.796;5.808;2023-06-24T12:52:56;35.60;78.00
26803;DHT22;14378;51.796;5.808;2023-06-24T12:54:57;35.50;79.90
26803;DHT22;14378;51.796;5.808;2023-06-24T12:56:59;35.50;74.70
26803;DHT22;14378;51.796;5.808;2023-06-24T12:59:00;35.30;75.30
26803;DHT22;14378;51.796;5.808;2023-06-24T13:01:01;35.40;79.20
26803;DHT22;14378;51.796;5.808;2023-06-24T13:03:02;35.60;78.90
26803;DHT22;14378;51.796;5.808;2023-06-24T13:05:04;35.70;79.90
26803;DHT22;14378;51.796;5.808;2023-06-24T13:07:05;35.90;79.20
26803;DHT22;14378;51.796;5.808;2023-06-24T13:09:08;36.00;77.40
26803;DHT22;14378;51.796;5.808;2023-06-24T13:11:09;36.10;76.50
26803;DHT22;14378;51.796;5.808;2023-06-24T13:13:10;36.10;76.10
26803;DHT22;14378;51.796;5.808;2023-06-24T13:15:12;36.10;76.00